sensor_id;sensor_type;location;lat;lon;timestamp;P1;durP1;ratioP1;P2;durP2;ratioP2
12412;SDS011;13877;18.896;-99.222;2023-06-19T00:00:00;9.25;;;4.57;;
12412;SDS011;13877;18.896;-99.222;2023-06-19T00:02:37;9.77;;;4.57;;
12412;SDS011;13877;18.896;-99.222;2023-06-19T00:05:06;13.35;;;5.82;;
12412;SDS011;13877;18.896;-99.222;2023-06-19T00:07:34;15.25;;;5.05;;
12412;SDS011;13877;18.896;-99.222;2023-06-19T00:10:02;16.15;;;5.22;;
12412;SDS011;13877;18.896;-99.222;2023-06-19T00:12:30;15.02;;;5.57;;
12412;SDS011;13877;18.896;-99.222;2023-06-19T00:14:57;19.80;;;5.50;;
12412;SDS011;13877;18.896;-99.222;2023-06-19T00:17:23;12.95;;;5.03;;
12412;SDS011;13877;18.896;-99.222;2023-06-19T00:19:54;8.55;;;4.32;;
12412;SDS011;13877;18.896;-99.222;2023-06-19T00:22:20;15.13;;;5.03;;
12412;SDS011;13877;18.896;-99.222;2023-06-19T00:24:47;7.40;;;4.82;;
12412;SDS011;13877;18.896;-99.222;2023-06-19T00:27:14;11.30;;;5.07;;
12412;SDS011;13877;18.896;-99.222;2023-06-19T00:29:41;17.25;;;5.35;;
12412;SDS011;13877;18.896;-99.222;2023-06-19T00:32:08;13.00;;;5.32;;
12412;SDS011;13877;18.896;-99.222;2023-06-19T00:34:35;12.85;;;5.30;;
12412;SDS011;13877;18.896;-99.222;2023-06-19T00:37:03;13.27;;;5.35;;
12412;SDS011;13877;18.896;-99.222;2023-06-19T00:39:32;11.07;;;6.75;;
12412;SDS011;13877;18.896;-99.222;2023-06-19T00:41:58;14.43;;;5.85;;
12412;SDS011;13877;18.896;-99.222;2023-06-19T00:44:25;15.95;;;6.20;;
12412;SDS011;13877;18.896;-99.222;2023-06-19T00:46:56;18.50;;;7.18;;
12412;SDS011;13877;18.896;-99.222;2023-06-19T00:49:25;15.18;;;6.82;;
12412;SDS011;13877;18.896;-99.222;2023-06-19T00:51:53;17.17;;;6.40;;
12412;SDS011;13877;18.896;-99.222;2023-06-19T00:54:20;12.10;;;6.38;;
12412;SDS011;13877;18.896;-99.222;2023-06-19T00:56:48;16.25;;;6.95;;
12412;SDS011;13877;18.896;-99.222;2023-06-19T00:59:17;11.35;;;6.25;;
12412;SDS011;13877;18.896;-99.222;2023-06-19T01:01:45;63.90;;;8.40;;
12412;SDS011;13877;18.896;-99.222;2023-06-19T01:04:12;35.67;;;6.57;;
12412;SDS011;13877;18.896;-99.222;2023-06-19T01:07:02;18.10;;;6.43;;
12412;SDS011;13877;18.896;-99.222;2023-06-19T01:09:40;24.38;;;6.90;;
12412;SDS011;13877;18.896;-99.222;2023-06-19T01:12:37;17.00;;;6.10;;
12412;SDS011;13877;18.896;-99.222;2023-06-19T01:15:06;16.48;;;6.70;;
12412;SDS011;13877;18.896;-99.222;2023-06-19T01:17:35;29.63;;;6.40;;
12412;SDS011;13877;18.896;-99.222;2023-06-19T01:20:03;38.22;;;7.53;;
12412;SDS011;13877;18.896;-99.222;2023-06-19T01:22:37;24.98;;;7.10;;
12412;SDS011;13877;18.896;-99.222;2023-06-19T01:25:04;28.38;;;6.90;;
12412;SDS011;13877;18.896;-99.222;2023-06-19T01:30:02;17.08;;;6.45;;
12412;SDS011;13877;18.896;-99.222;2023-06-19T01:32:34;12.48;;;6.63;;
12412;SDS011;13877;18.896;-99.222;2023-06-19T01:35:23;11.55;;;6.65;;
12412;SDS011;13877;18.896;-99.222;2023-06-19T01:37:54;15.05;;;6.03;;
12412;SDS011;13877;18.896;-99.222;2023-06-19T01:40:21;27.15;;;8.00;;
12412;SDS011;13877;18.896;-99.222;2023-06-19T01:42:53;22.20;;;7.20;;
12412;SDS011;13877;18.896;-99.222;2023-06-19T01:45:22;15.98;;;7.57;;
12412;SDS011;13877;18.896;-99.222;2023-06-19T01:47:49;16.30;;;7.25;;
12412;SDS011;13877;18.896;-99.222;2023-06-19T01:50:16;25.13;;;8.20;;
12412;SDS011;13877;18.896;-99.222;2023-06-19T01:52:44;19.35;;;7.28;;
12412;SDS011;13877;18.896;-99.222;2023-06-19T01:55:11;12.65;;;6.88;;
12412;SDS011;13877;18.896;-99.222;2023-06-19T01:57:39;20.02;;;7.90;;
12412;SDS011;13877;18.896;-99.222;2023-06-19T02:00:06;19.52;;;7.72;;
12412;SDS011;13877;18.896;-99.222;2023-06-19T02:02:39;25.65;;;8.73;;
12412;SDS011;13877;18.896;-99.222;2023-06-19T02:05:06;24.67;;;9.15;;
12412;SDS011;13877;18.896;-99.222;2023-06-19T02:07:33;30.70;;;8.45;;
12412;SDS011;13877;18.896;-99.222;2023-06-19T02:10:00;24.65;;;8.90;;
12412;SDS011;13877;18.896;-99.222;2023-06-19T02:12:27;32.03;;;9.82;;
12412;SDS011;13877;18.896;-99.222;2023-06-19T02:14:54;28.77;;;10.20;;
12412;SDS011;13877;18.896;-99.222;2023-06-19T02:17:21;24.77;;;8.95;;
12412;SDS011;13877;18.896;-99.222;2023-06-19T02:19:48;28.70;;;9.52;;
12412;SDS011;13877;18.896;-99.222;2023-06-19T02:22:17;21.95;;;8.82;;
12412;SDS011;13877;18.896;-99.222;2023-06-19T02:24:45;24.63;;;9.57;;
12412;SDS011;13877;18.896;-99.222;2023-06-19T02:27:12;21.85;;;9.60;;
12412;SDS011;13877;18.896;-99.222;2023-06-19T02:29:40;23.17;;;9.25;;
12412;SDS011;13877;18.896;-99.222;2023-06-19T02:32:07;24.13;;;10.20;;
12412;SDS011;13877;18.896;-99.222;2023-06-19T02:34:33;27.25;;;10.73;;
12412;SDS011;13877;18.896;-99.222;2023-06-19T02:37:00;28.27;;;10.15;;
12412;SDS011;13877;18.896;-99.222;2023-06-19T02:39:29;29.35;;;10.88;;
12412;SDS011;13877;18.896;-99.222;2023-06-19T02:41:55;35.53;;;10.70;;
12412;SDS011;13877;18.896;-99.222;2023-06-19T02:44:22;33.08;;;10.50;;
12412;SDS011;13877;18.896;-99.222;2023-06-19T02:46:49;18.35;;;10.13;;
12412;SDS011;13877;18.896;-99.222;2023-06-19T02:49:16;21.70;;;10.05;;
12412;SDS011;13877;18.896;-99.222;2023-06-19T02:51:43;27.75;;;10.13;;
12412;SDS011;13877;18.896;-99.222;2023-06-19T02:54:09;24.23;;;9.65;;
12412;SDS011;13877;18.896;-99.222;2023-06-19T02:56:37;25.45;;;10.15;;
12412;SDS011;13877;18.896;-99.222;2023-06-19T02:59:04;27.02;;;10.02;;
12412;SDS011;13877;18.896;-99.222;2023-06-19T03:01:31;19.02;;;9.07;;
12412;SDS011;13877;18.896;-99.222;2023-06-19T03:03:59;25.83;;;9.02;;
12412;SDS011;13877;18.896;-99.222;2023-06-19T03:06:26;31.80;;;10.18;;
12412;SDS011;13877;18.896;-99.222;2023-06-19T03:08:53;25.02;;;9.38;;
12412;SDS011;13877;18.896;-99.222;2023-06-19T03:11:20;20.83;;;8.60;;
12412;SDS011;13877;18.896;-99.222;2023-06-19T03:13:50;23.60;;;8.35;;
12412;SDS011;13877;18.896;-99.222;2023-06-19T03:16:19;13.82;;;8.45;;
12412;SDS011;13877;18.896;-99.222;2023-06-19T03:18:48;21.88;;;8.30;;
12412;SDS011;13877;18.896;-99.222;2023-06-19T03:21:17;16.23;;;8.52;;
12412;SDS011;13877;18.896;-99.222;2023-06-19T03:23:47;16.45;;;8.18;;
12412;SDS011;13877;18.896;-99.222;2023-06-19T03:26:15;17.00;;;8.18;;
12412;SDS011;13877;18.896;-99.222;2023-06-19T03:28:42;24.00;;;10.07;;
12412;SDS011;13877;18.896;-99.222;2023-06-19T03:31:09;33.15;;;10.35;;
12412;SDS011;13877;18.896;-99.222;2023-06-19T03:33:36;35.63;;;9.73;;
12412;SDS011;13877;18.896;-99.222;2023-06-19T03:36:03;26.85;;;11.07;;
12412;SDS011;13877;18.896;-99.222;2023-06-19T03:38:47;25.00;;;10.15;;
12412;SDS011;13877;18.896;-99.222;2023-06-19T03:41:18;27.65;;;10.85;;
12412;SDS011;13877;18.896;-99.222;2023-06-19T03:43:45;28.63;;;9.82;;
12412;SDS011;13877;18.896;-99.222;2023-06-19T03:46:12;31.17;;;10.40;;
12412;SDS011;13877;18.896;-99.222;2023-06-19T03:48:39;26.60;;;9.63;;
12412;SDS011;13877;18.896;-99.222;2023-06-19T03:51:06;29.73;;;10.68;;
12412;SDS011;13877;18.896;-99.222;2023-06-19T03:53:33;21.00;;;9.98;;
12412;SDS011;13877;18.896;-99.222;2023-06-19T03:55:59;18.95;;;10.23;;
12412;SDS011;13877;18.896;-99.222;2023-06-19T03:58:26;47.72;;;11.88;;
12412;SDS011;13877;18.896;-99.222;2023-06-19T04:00:53;43.92;;;11.05;;
12412;SDS011;13877;18.896;-99.222;2023-06-19T04:03:20;45.60;;;11.10;;
12412;SDS011;13877;18.896;-99.222;2023-06-19T04:05:47;24.38;;;11.05;;
12412;SDS011;13877;18.896;-99.222;2023-06-19T04:08:15;33.53;;;10.35;;
12412;SDS011;13877;18.896;-99.222;2023-06-19T04:10:42;24.90;;;9.60;;
12412;SDS011;13877;18.896;-99.222;2023-06-19T04:13:11;30.70;;;10.05;;
12412;SDS011;13877;18.896;-99.222;2023-06-19T04:15:38;24.92;;;9.63;;
12412;SDS011;13877;18.896;-99.222;2023-06-19T04:18:05;32.67;;;9.60;;
12412;SDS011;13877;18.896;-99.222;2023-06-19T04:20:32;23.33;;;9.40;;
12412;SDS011;13877;18.896;-99.222;2023-06-19T04:22:59;30.60;;;8.98;;
12412;SDS011;13877;18.896;-99.222;2023-06-19T04:25:27;28.13;;;9.27;;
12412;SDS011;13877;18.896;-99.222;2023-06-19T04:27:55;27.27;;;8.82;;
12412;SDS011;13877;18.896;-99.222;2023-06-19T04:30:22;19.40;;;6.95;;
12412;SDS011;13877;18.896;-99.222;2023-06-19T04:32:49;20.33;;;7.22;;
12412;SDS011;13877;18.896;-99.222;2023-06-19T04:35:15;21.90;;;6.93;;
12412;SDS011;13877;18.896;-99.222;2023-06-19T04:37:44;19.17;;;6.55;;
12412;SDS011;13877;18.896;-99.222;2023-06-19T04:40:14;26.73;;;7.07;;
12412;SDS011;13877;18.896;-99.222;2023-06-19T04:42:41;18.60;;;6.60;;
12412;SDS011;13877;18.896;-99.222;2023-06-19T04:45:08;23.33;;;8.10;;
12412;SDS011;13877;18.896;-99.222;2023-06-19T04:47:35;17.80;;;6.85;;
12412;SDS011;13877;18.896;-99.222;2023-06-19T04:50:02;18.45;;;7.18;;
12412;SDS011;13877;18.896;-99.222;2023-06-19T04:52:29;13.70;;;6.88;;
12412;SDS011;13877;18.896;-99.222;2023-06-19T04:54:58;19.58;;;6.72;;
12412;SDS011;13877;18.896;-99.222;2023-06-19T04:57:25;17.75;;;6.68;;
12412;SDS011;13877;18.896;-99.222;2023-06-19T04:59:52;30.25;;;7.32;;
12412;SDS011;13877;18.896;-99.222;2023-06-19T05:02:18;22.25;;;6.30;;
12412;SDS011;13877;18.896;-99.222;2023-06-19T05:04:45;14.77;;;6.65;;
12412;SDS011;13877;18.896;-99.222;2023-06-19T05:07:12;20.63;;;7.65;;
12412;SDS011;13877;18.896;-99.222;2023-06-19T05:09:41;22.95;;;7.53;;
12412;SDS011;13877;18.896;-99.222;2023-06-19T05:12:08;21.95;;;6.43;;
12412;SDS011;13877;18.896;-99.222;2023-06-19T05:14:35;19.08;;;6.57;;
12412;SDS011;13877;18.896;-99.222;2023-06-19T05:17:02;15.80;;;6.88;;
12412;SDS011;13877;18.896;-99.222;2023-06-19T05:19:29;16.55;;;6.40;;
12412;SDS011;13877;18.896;-99.222;2023-06-19T05:21:56;14.55;;;6.22;;
12412;SDS011;13877;18.896;-99.222;2023-06-19T05:24:22;14.32;;;6.70;;
12412;SDS011;13877;18.896;-99.222;2023-06-19T05:26:50;15.50;;;6.47;;
12412;SDS011;13877;18.896;-99.222;2023-06-19T05:29:16;14.52;;;6.50;;
12412;SDS011;13877;18.896;-99.222;2023-06-19T05:31:43;18.65;;;7.03;;
12412;SDS011;13877;18.896;-99.222;2023-06-19T05:34:10;19.52;;;7.28;;
12412;SDS011;13877;18.896;-99.222;2023-06-19T05:36:37;22.15;;;7.25;;
12412;SDS011;13877;18.896;-99.222;2023-06-19T05:39:03;17.10;;;6.85;;
12412;SDS011;13877;18.896;-99.222;2023-06-19T05:41:31;13.32;;;6.80;;
12412;SDS011;13877;18.896;-99.222;2023-06-19T05:43:58;21.27;;;7.50;;
12412;SDS011;13877;18.896;-99.222;2023-06-19T05:46:25;26.00;;;7.30;;
12412;SDS011;13877;18.896;-99.222;2023-06-19T05:48:52;13.38;;;6.53;;
12412;SDS011;13877;18.896;-99.222;2023-06-19T05:51:20;17.02;;;7.03;;
12412;SDS011;13877;18.896;-99.222;2023-06-19T05:53:47;16.98;;;6.32;;
12412;SDS011;13877;18.896;-99.222;2023-06-19T05:56:15;17.75;;;7.43;;
12412;SDS011;13877;18.896;-99.222;2023-06-19T05:58:42;17.35;;;7.28;;
12412;SDS011;13877;18.896;-99.222;2023-06-19T06:01:09;23.27;;;6.50;;
12412;SDS011;13877;18.896;-99.222;2023-06-19T06:03:36;10.20;;;5.30;;
12412;SDS011;13877;18.896;-99.222;2023-06-19T06:06:03;10.65;;;5.88;;
12412;SDS011;13877;18.896;-99.222;2023-06-19T06:08:30;14.05;;;6.00;;
12412;SDS011;13877;18.896;-99.222;2023-06-19T06:10:58;17.27;;;6.30;;
12412;SDS011;13877;18.896;-99.222;2023-06-19T06:13:24;9.68;;;5.18;;
12412;SDS011;13877;18.896;-99.222;2023-06-19T06:15:51;13.75;;;5.85;;
12412;SDS011;13877;18.896;-99.222;2023-06-19T06:18:18;9.57;;;5.57;;
12412;SDS011;13877;18.896;-99.222;2023-06-19T06:20:46;12.68;;;5.13;;
12412;SDS011;13877;18.896;-99.222;2023-06-19T06:23:12;11.32;;;5.68;;
12412;SDS011;13877;18.896;-99.222;2023-06-19T06:25:40;12.63;;;5.60;;
12412;SDS011;13877;18.896;-99.222;2023-06-19T06:28:06;10.32;;;4.82;;
12412;SDS011;13877;18.896;-99.222;2023-06-19T06:30:33;20.05;;;5.75;;
12412;SDS011;13877;18.896;-99.222;2023-06-19T06:33:00;14.25;;;6.18;;
12412;SDS011;13877;18.896;-99.222;2023-06-19T06:35:27;12.75;;;5.50;;
12412;SDS011;13877;18.896;-99.222;2023-06-19T06:37:54;13.32;;;5.03;;
12412;SDS011;13877;18.896;-99.222;2023-06-19T06:40:21;17.92;;;5.78;;
12412;SDS011;13877;18.896;-99.222;2023-06-19T06:42:50;11.45;;;5.15;;
12412;SDS011;13877;18.896;-99.222;2023-06-19T06:45:18;10.23;;;5.72;;
12412;SDS011;13877;18.896;-99.222;2023-06-19T06:47:45;10.73;;;5.53;;
12412;SDS011;13877;18.896;-99.222;2023-06-19T06:50:13;12.13;;;5.90;;
12412;SDS011;13877;18.896;-99.222;2023-06-19T06:52:40;14.52;;;5.93;;
12412;SDS011;13877;18.896;-99.222;2023-06-19T06:55:06;15.32;;;5.43;;
12412;SDS011;13877;18.896;-99.222;2023-06-19T06:57:33;16.40;;;5.85;;
12412;SDS011;13877;18.896;-99.222;2023-06-19T07:00:01;13.10;;;5.93;;
12412;SDS011;13877;18.896;-99.222;2023-06-19T07:02:30;11.20;;;5.57;;
12412;SDS011;13877;18.896;-99.222;2023-06-19T07:04:57;15.82;;;6.53;;
12412;SDS011;13877;18.896;-99.222;2023-06-19T07:07:24;12.80;;;6.13;;
12412;SDS011;13877;18.896;-99.222;2023-06-19T07:09:51;12.15;;;5.82;;
12412;SDS011;13877;18.896;-99.222;2023-06-19T07:12:17;21.10;;;6.20;;
12412;SDS011;13877;18.896;-99.222;2023-06-19T07:14:44;10.82;;;5.68;;
12412;SDS011;13877;18.896;-99.222;2023-06-19T07:17:11;15.10;;;6.65;;
12412;SDS011;13877;18.896;-99.222;2023-06-19T07:19:38;22.13;;;6.53;;
12412;SDS011;13877;18.896;-99.222;2023-06-19T07:22:05;16.17;;;6.25;;
12412;SDS011;13877;18.896;-99.222;2023-06-19T07:24:32;15.52;;;6.35;;
12412;SDS011;13877;18.896;-99.222;2023-06-19T07:26:59;12.68;;;6.43;;
12412;SDS011;13877;18.896;-99.222;2023-06-19T07:29:25;15.02;;;6.80;;
12412;SDS011;13877;18.896;-99.222;2023-06-19T07:31:52;13.45;;;6.13;;
12412;SDS011;13877;18.896;-99.222;2023-06-19T07:34:19;24.42;;;6.35;;
12412;SDS011;13877;18.896;-99.222;2023-06-19T07:36:47;12.80;;;6.15;;
12412;SDS011;13877;18.896;-99.222;2023-06-19T07:39:14;19.38;;;6.13;;
12412;SDS011;13877;18.896;-99.222;2023-06-19T07:41:40;13.63;;;6.13;;
12412;SDS011;13877;18.896;-99.222;2023-06-19T07:44:07;18.08;;;6.55;;
12412;SDS011;13877;18.896;-99.222;2023-06-19T07:46:34;14.13;;;5.85;;
12412;SDS011;13877;18.896;-99.222;2023-06-19T07:49:01;11.80;;;6.15;;
12412;SDS011;13877;18.896;-99.222;2023-06-19T07:51:28;14.57;;;6.00;;
12412;SDS011;13877;18.896;-99.222;2023-06-19T07:53:54;13.93;;;6.35;;
12412;SDS011;13877;18.896;-99.222;2023-06-19T07:56:21;20.85;;;6.45;;
12412;SDS011;13877;18.896;-99.222;2023-06-19T07:58:48;11.63;;;6.18;;
12412;SDS011;13877;18.896;-99.222;2023-06-19T08:01:15;16.27;;;5.80;;
12412;SDS011;13877;18.896;-99.222;2023-06-19T08:03:42;13.85;;;5.82;;
12412;SDS011;13877;18.896;-99.222;2023-06-19T08:06:09;13.20;;;6.20;;
12412;SDS011;13877;18.896;-99.222;2023-06-19T08:08:36;14.00;;;6.20;;
12412;SDS011;13877;18.896;-99.222;2023-06-19T08:11:03;14.32;;;6.32;;
12412;SDS011;13877;18.896;-99.222;2023-06-19T08:13:30;19.02;;;6.55;;
12412;SDS011;13877;18.896;-99.222;2023-06-19T08:15:56;16.05;;;5.72;;
12412;SDS011;13877;18.896;-99.222;2023-06-19T08:18:23;10.00;;;5.78;;
12412;SDS011;13877;18.896;-99.222;2023-06-19T08:20:50;13.27;;;6.20;;
12412;SDS011;13877;18.896;-99.222;2023-06-19T08:23:17;14.80;;;6.15;;
12412;SDS011;13877;18.896;-99.222;2023-06-19T08:25:44;19.25;;;5.63;;
12412;SDS011;13877;18.896;-99.222;2023-06-19T08:28:10;11.93;;;6.47;;
12412;SDS011;13877;18.896;-99.222;2023-06-19T08:30:37;18.25;;;6.13;;
12412;SDS011;13877;18.896;-99.222;2023-06-19T08:33:04;15.20;;;6.15;;
12412;SDS011;13877;18.896;-99.222;2023-06-19T08:35:31;11.52;;;5.60;;
12412;SDS011;13877;18.896;-99.222;2023-06-19T08:37:58;13.20;;;5.78;;
12412;SDS011;13877;18.896;-99.222;2023-06-19T08:40:25;15.70;;;6.47;;
12412;SDS011;13877;18.896;-99.222;2023-06-19T08:42:51;18.23;;;6.07;;
12412;SDS011;13877;18.896;-99.222;2023-06-19T08:45:18;17.02;;;6.10;;
12412;SDS011;13877;18.896;-99.222;2023-06-19T08:47:47;14.80;;;6.35;;
12412;SDS011;13877;18.896;-99.222;2023-06-19T08:50:17;12.18;;;5.93;;
12412;SDS011;13877;18.896;-99.222;2023-06-19T08:52:45;9.53;;;6.20;;
12412;SDS011;13877;18.896;-99.222;2023-06-19T08:55:12;18.52;;;6.65;;
12412;SDS011;13877;18.896;-99.222;2023-06-19T08:57:39;10.15;;;5.68;;
12412;SDS011;13877;18.896;-99.222;2023-06-19T09:00:08;11.55;;;6.30;;
12412;SDS011;13877;18.896;-99.222;2023-06-19T09:02:39;13.05;;;6.22;;
12412;SDS011;13877;18.896;-99.222;2023-06-19T09:05:11;12.27;;;6.60;;
12412;SDS011;13877;18.896;-99.222;2023-06-19T09:07:40;14.77;;;5.95;;
12412;SDS011;13877;18.896;-99.222;2023-06-19T09:10:14;13.85;;;6.68;;
12412;SDS011;13877;18.896;-99.222;2023-06-19T09:13:05;12.07;;;5.53;;
12412;SDS011;13877;18.896;-99.222;2023-06-19T09:15:35;12.07;;;6.00;;
12412;SDS011;13877;18.896;-99.222;2023-06-19T09:20:32;19.75;;;6.32;;
12412;SDS011;13877;18.896;-99.222;2023-06-19T09:25:29;13.48;;;6.07;;
12412;SDS011;13877;18.896;-99.222;2023-06-19T09:27:56;16.25;;;6.80;;
12412;SDS011;13877;18.896;-99.222;2023-06-19T09:30:23;14.95;;;6.60;;
12412;SDS011;13877;18.896;-99.222;2023-06-19T09:32:51;13.40;;;6.68;;
12412;SDS011;13877;18.896;-99.222;2023-06-19T09:35:17;15.20;;;6.60;;
12412;SDS011;13877;18.896;-99.222;2023-06-19T09:37:45;19.63;;;6.90;;
12412;SDS011;13877;18.896;-99.222;2023-06-19T09:40:13;24.55;;;6.78;;
12412;SDS011;13877;18.896;-99.222;2023-06-19T09:42:42;12.55;;;6.78;;
12412;SDS011;13877;18.896;-99.222;2023-06-19T09:45:19;16.25;;;6.68;;
12412;SDS011;13877;18.896;-99.222;2023-06-19T09:47:50;16.38;;;6.93;;
12412;SDS011;13877;18.896;-99.222;2023-06-19T09:50:19;16.90;;;6.68;;
12412;SDS011;13877;18.896;-99.222;2023-06-19T09:52:54;14.55;;;6.40;;
12412;SDS011;13877;18.896;-99.222;2023-06-19T09:55:22;14.50;;;6.75;;
12412;SDS011;13877;18.896;-99.222;2023-06-19T09:57:54;13.45;;;6.93;;
12412;SDS011;13877;18.896;-99.222;2023-06-19T10:00:21;16.65;;;7.10;;
12412;SDS011;13877;18.896;-99.222;2023-06-19T10:02:52;16.17;;;6.95;;
12412;SDS011;13877;18.896;-99.222;2023-06-19T10:05:28;16.05;;;6.75;;
12412;SDS011;13877;18.896;-99.222;2023-06-19T10:07:56;11.52;;;6.57;;
12412;SDS011;13877;18.896;-99.222;2023-06-19T10:10:27;16.73;;;6.73;;
12412;SDS011;13877;18.896;-99.222;2023-06-19T10:12:55;13.65;;;6.53;;
12412;SDS011;13877;18.896;-99.222;2023-06-19T10:15:24;13.00;;;6.80;;
12412;SDS011;13877;18.896;-99.222;2023-06-19T10:18:14;9.77;;;6.45;;
12412;SDS011;13877;18.896;-99.222;2023-06-19T10:23:12;11.18;;;6.53;;
12412;SDS011;13877;18.896;-99.222;2023-06-19T10:25:57;21.85;;;5.95;;
12412;SDS011;13877;18.896;-99.222;2023-06-19T10:28:31;17.73;;;6.38;;
12412;SDS011;13877;18.896;-99.222;2023-06-19T10:33:29;11.23;;;6.13;;
12412;SDS011;13877;18.896;-99.222;2023-06-19T10:36:00;15.48;;;6.43;;
12412;SDS011;13877;18.896;-99.222;2023-06-19T10:38:39;10.77;;;6.45;;
12412;SDS011;13877;18.896;-99.222;2023-06-19T10:41:13;13.88;;;6.63;;
12412;SDS011;13877;18.896;-99.222;2023-06-19T10:46:24;19.73;;;6.13;;
12412;SDS011;13877;18.896;-99.222;2023-06-19T10:48:56;13.73;;;6.80;;
12412;SDS011;13877;18.896;-99.222;2023-06-19T10:51:27;14.27;;;6.55;;
12412;SDS011;13877;18.896;-99.222;2023-06-19T10:53:54;12.95;;;6.05;;
12412;SDS011;13877;18.896;-99.222;2023-06-19T10:56:22;19.15;;;5.88;;
12412;SDS011;13877;18.896;-99.222;2023-06-19T10:58:57;10.45;;;5.45;;
12412;SDS011;13877;18.896;-99.222;2023-06-19T11:01:46;12.23;;;6.53;;
12412;SDS011;13877;18.896;-99.222;2023-06-19T11:04:13;18.95;;;6.55;;
12412;SDS011;13877;18.896;-99.222;2023-06-19T11:06:41;12.65;;;6.28;;
12412;SDS011;13877;18.896;-99.222;2023-06-19T11:09:11;19.00;;;6.28;;
12412;SDS011;13877;18.896;-99.222;2023-06-19T11:14:13;16.63;;;5.90;;
12412;SDS011;13877;18.896;-99.222;2023-06-19T11:16:42;20.40;;;6.68;;
12412;SDS011;13877;18.896;-99.222;2023-06-19T11:19:16;11.73;;;6.20;;
12412;SDS011;13877;18.896;-99.222;2023-06-19T11:21:46;16.38;;;6.90;;
12412;SDS011;13877;18.896;-99.222;2023-06-19T11:24:14;9.48;;;5.65;;
12412;SDS011;13877;18.896;-99.222;2023-06-19T11:26:42;18.58;;;6.22;;
12412;SDS011;13877;18.896;-99.222;2023-06-19T11:29:18;13.70;;;6.15;;
12412;SDS011;13877;18.896;-99.222;2023-06-19T11:31:48;15.98;;;6.18;;
12412;SDS011;13877;18.896;-99.222;2023-06-19T11:34:15;14.60;;;7.10;;
12412;SDS011;13877;18.896;-99.222;2023-06-19T11:36:43;13.48;;;5.88;;
12412;SDS011;13877;18.896;-99.222;2023-06-19T11:39:12;12.90;;;5.57;;
12412;SDS011;13877;18.896;-99.222;2023-06-19T11:41:45;14.57;;;6.45;;
12412;SDS011;13877;18.896;-99.222;2023-06-19T11:44:12;11.30;;;5.82;;
12412;SDS011;13877;18.896;-99.222;2023-06-19T11:46:39;15.48;;;6.13;;
12412;SDS011;13877;18.896;-99.222;2023-06-19T11:49:07;14.10;;;6.00;;
12412;SDS011;13877;18.896;-99.222;2023-06-19T11:51:35;14.98;;;6.45;;
12412;SDS011;13877;18.896;-99.222;2023-06-19T11:54:10;19.33;;;5.95;;
12412;SDS011;13877;18.896;-99.222;2023-06-19T11:56:38;15.65;;;6.78;;
12412;SDS011;13877;18.896;-99.222;2023-06-19T11:59:05;17.35;;;6.70;;
12412;SDS011;13877;18.896;-99.222;2023-06-19T12:01:33;24.33;;;6.78;;
12412;SDS011;13877;18.896;-99.222;2023-06-19T12:04:01;27.73;;;7.15;;
12412;SDS011;13877;18.896;-99.222;2023-06-19T12:06:29;20.05;;;7.10;;
12412;SDS011;13877;18.896;-99.222;2023-06-19T12:08:56;16.63;;;6.72;;
12412;SDS011;13877;18.896;-99.222;2023-06-19T12:11:23;20.10;;;7.53;;
12412;SDS011;13877;18.896;-99.222;2023-06-19T12:13:50;18.77;;;6.65;;
12412;SDS011;13877;18.896;-99.222;2023-06-19T12:16:19;23.35;;;6.55;;
12412;SDS011;13877;18.896;-99.222;2023-06-19T12:18:46;19.60;;;6.38;;
12412;SDS011;13877;18.896;-99.222;2023-06-19T12:21:13;20.67;;;7.40;;
12412;SDS011;13877;18.896;-99.222;2023-06-19T12:23:39;13.48;;;5.97;;
12412;SDS011;13877;18.896;-99.222;2023-06-19T12:26:06;15.35;;;6.53;;
12412;SDS011;13877;18.896;-99.222;2023-06-19T12:28:33;19.95;;;7.00;;
12412;SDS011;13877;18.896;-99.222;2023-06-19T12:31:00;20.83;;;7.15;;
12412;SDS011;13877;18.896;-99.222;2023-06-19T12:33:29;17.00;;;7.03;;
12412;SDS011;13877;18.896;-99.222;2023-06-19T12:35:58;14.30;;;7.40;;
12412;SDS011;13877;18.896;-99.222;2023-06-19T12:38:26;12.13;;;7.22;;
12412;SDS011;13877;18.896;-99.222;2023-06-19T12:40:53;23.95;;;6.97;;
12412;SDS011;13877;18.896;-99.222;2023-06-19T12:43:19;24.13;;;6.45;;
12412;SDS011;13877;18.896;-99.222;2023-06-19T12:45:46;15.77;;;6.80;;
12412;SDS011;13877;18.896;-99.222;2023-06-19T12:48:13;22.75;;;7.25;;
12412;SDS011;13877;18.896;-99.222;2023-06-19T12:50:40;23.55;;;7.35;;
12412;SDS011;13877;18.896;-99.222;2023-06-19T12:53:07;22.73;;;7.70;;
12412;SDS011;13877;18.896;-99.222;2023-06-19T12:55:34;15.30;;;7.35;;
12412;SDS011;13877;18.896;-99.222;2023-06-19T12:58:01;24.13;;;7.13;;
12412;SDS011;13877;18.896;-99.222;2023-06-19T13:00:27;24.42;;;7.32;;
12412;SDS011;13877;18.896;-99.222;2023-06-19T13:02:54;22.98;;;7.40;;
12412;SDS011;13877;18.896;-99.222;2023-06-19T13:05:21;18.95;;;6.97;;
12412;SDS011;13877;18.896;-99.222;2023-06-19T13:07:48;19.05;;;7.22;;
12412;SDS011;13877;18.896;-99.222;2023-06-19T13:10:15;22.23;;;7.13;;
12412;SDS011;13877;18.896;-99.222;2023-06-19T13:12:41;15.65;;;7.00;;
12412;SDS011;13877;18.896;-99.222;2023-06-19T13:15:09;25.55;;;7.40;;
12412;SDS011;13877;18.896;-99.222;2023-06-19T13:17:35;28.30;;;8.60;;
12412;SDS011;13877;18.896;-99.222;2023-06-19T13:20:03;29.17;;;7.20;;
12412;SDS011;13877;18.896;-99.222;2023-06-19T13:22:31;21.88;;;7.57;;
12412;SDS011;13877;18.896;-99.222;2023-06-19T13:24:58;21.80;;;7.95;;
12412;SDS011;13877;18.896;-99.222;2023-06-19T13:27:24;35.50;;;8.00;;
12412;SDS011;13877;18.896;-99.222;2023-06-19T13:29:53;24.63;;;7.82;;
12412;SDS011;13877;18.896;-99.222;2023-06-19T13:32:21;37.05;;;8.25;;
12412;SDS011;13877;18.896;-99.222;2023-06-19T13:34:47;44.63;;;9.02;;
12412;SDS011;13877;18.896;-99.222;2023-06-19T13:37:14;24.33;;;8.25;;
12412;SDS011;13877;18.896;-99.222;2023-06-19T13:39:41;20.27;;;7.90;;
12412;SDS011;13877;18.896;-99.222;2023-06-19T13:42:08;28.02;;;7.47;;
12412;SDS011;13877;18.896;-99.222;2023-06-19T13:44:36;22.58;;;7.95;;
12412;SDS011;13877;18.896;-99.222;2023-06-19T13:47:04;17.02;;;7.82;;
12412;SDS011;13877;18.896;-99.222;2023-06-19T13:49:31;25.05;;;8.55;;
12412;SDS011;13877;18.896;-99.222;2023-06-19T13:51:58;31.02;;;8.20;;
12412;SDS011;13877;18.896;-99.222;2023-06-19T13:54:25;43.22;;;10.90;;
12412;SDS011;13877;18.896;-99.222;2023-06-19T13:56:52;18.38;;;8.55;;
12412;SDS011;13877;18.896;-99.222;2023-06-19T13:59:18;26.10;;;8.98;;
12412;SDS011;13877;18.896;-99.222;2023-06-19T14:01:45;25.83;;;9.15;;
12412;SDS011;13877;18.896;-99.222;2023-06-19T14:04:12;24.52;;;8.88;;
12412;SDS011;13877;18.896;-99.222;2023-06-19T14:06:39;23.33;;;8.45;;
12412;SDS011;13877;18.896;-99.222;2023-06-19T14:09:08;21.48;;;8.65;;
12412;SDS011;13877;18.896;-99.222;2023-06-19T14:11:35;18.42;;;9.13;;
12412;SDS011;13877;18.896;-99.222;2023-06-19T14:14:02;17.80;;;8.68;;
12412;SDS011;13877;18.896;-99.222;2023-06-19T14:16:29;15.05;;;8.10;;
12412;SDS011;13877;18.896;-99.222;2023-06-19T14:18:56;16.42;;;9.18;;
12412;SDS011;13877;18.896;-99.222;2023-06-19T14:21:22;23.63;;;9.43;;
12412;SDS011;13877;18.896;-99.222;2023-06-19T14:23:50;19.85;;;10.40;;
12412;SDS011;13877;18.896;-99.222;2023-06-19T14:26:16;15.32;;;9.48;;
12412;SDS011;13877;18.896;-99.222;2023-06-19T14:28:43;22.08;;;9.38;;
12412;SDS011;13877;18.896;-99.222;2023-06-19T14:31:10;16.40;;;8.90;;